createdAt,value
2023-03-26T00:04:28.503Z,62.11
2023-03-26T00:09:30.944Z,62.67
2023-03-26T00:14:33.681Z,62.69
2023-03-26T00:19:36.129Z,62.30
2023-03-26T00:24:39.546Z,62.85
2023-03-26T00:29:41.908Z,63.55
2023-03-26T00:34:46.493Z,64.00
2023-03-26T00:39:49.578Z,63.00
2023-03-26T00:44:57.975Z,64.42
2023-03-26T00:50:00.903Z,64.41
2023-03-26T00:55:03.502Z,65.53
2023-03-26T01:00:17.109Z,65.71
2023-03-26T01:06:18.075Z,66.70
2023-03-26T01:11:24.244Z,67.81
2023-03-26T01:16:52.837Z,68.44
2023-03-26T01:21:55.605Z,67.93
2023-03-26T01:27:08.144Z,68.04
2023-03-26T01:32:10.506Z,68.34
2023-03-26T01:37:27.458Z,68.42
2023-03-26T01:42:37.834Z,68.63
2023-03-26T01:47:42.720Z,69.04
2023-03-26T01:52:45.207Z,68.99
2023-03-26T01:58:05.952Z,69.43
2023-03-26T02:03:21.809Z,69.17
2023-03-26T02:08:36.127Z,69.31
2023-03-26T02:13:41.310Z,69.59
2023-03-26T02:18:45.914Z,69.57
2023-03-26T02:23:50.919Z,69.43
2023-03-26T02:28:53.726Z,69.38
2023-03-26T02:33:56.954Z,69.78
2023-03-26T02:39:02.479Z,68.86
2023-03-26T02:44:08.746Z,69.27
2023-03-26T02:49:31.400Z,68.88
2023-03-26T02:54:35.514Z,69.19
2023-03-26T03:00:09.284Z,69.43
2023-03-26T03:05:12.003Z,68.93
2023-03-26T03:10:15.822Z,69.51
2023-03-26T03:15:54.236Z,68.87
2023-03-26T03:20:56.999Z,67.95
2023-03-26T03:25:59.589Z,68.16
2023-03-26T03:31:02.226Z,66.99
2023-03-26T03:36:19.970Z,65.64
2023-03-26T03:41:26.679Z,65.41
2023-03-26T03:46:29.317Z,63.89
2023-03-26T03:51:31.847Z,63.10
2023-03-26T03:56:38.227Z,62.32
2023-03-26T04:02:03.627Z,61.39
2023-03-26T04:07:11.816Z,59.95
2023-03-26T04:12:34.136Z,57.79
2023-03-26T04:17:42.922Z,57.08
2023-03-26T04:22:47.572Z,55.51
2023-03-26T04:27:52.260Z,54.14
2023-03-26T04:33:16.649Z,54.02
2023-03-26T04:38:19.961Z,52.55
2023-03-26T04:43:27.050Z,52.11
2023-03-26T04:48:52.204Z,51.17
2023-03-26T04:54:00.782Z,50.03
2023-03-26T04:59:30.277Z,48.55
2023-03-26T05:04:39.845Z,47.26
2023-03-26T05:09:43.857Z,45.67
2023-03-26T05:14:51.037Z,44.86
2023-03-26T05:20:04.044Z,43.10
2023-03-26T05:25:07.861Z,42.03
2023-03-26T05:30:17.025Z,40.63
2023-03-26T05:35:23.081Z,39.16
2023-03-26T05:40:25.629Z,36.82
2023-03-26T05:45:32.037Z,36.17
2023-03-26T05:50:39.759Z,34.05
2023-03-26T05:55:47.485Z,33.01
2023-03-26T06:01:10.939Z,31.76
2023-03-26T06:06:36.054Z,31.25
2023-03-26T06:11:39.044Z,30.81
2023-03-26T06:16:42.708Z,32.00
2023-03-26T06:21:53.917Z,32.90
2023-03-26T06:27:00.154Z,33.36
2023-03-26T06:32:18.947Z,32.77
2023-03-26T06:37:33.274Z,33.71
2023-03-26T06:43:08.021Z,33.09
2023-03-26T06:48:18.755Z,32.98
2023-03-26T06:53:42.458Z,33.44
2023-03-26T06:59:04.669Z,33.77
2023-03-26T07:04:27.404Z,33.76
2023-03-26T07:09:48.800Z,33.01
2023-03-26T07:15:11.756Z,33.00
2023-03-26T07:20:32.849Z,32.91
2023-03-26T07:25:35.711Z,31.99
2023-03-26T07:31:23.481Z,31.30
2023-03-26T07:36:57.312Z,29.58
2023-03-26T07:42:31.610Z,28.15
2023-03-26T07:47:54.023Z,27.37
2023-03-26T07:53:17.304Z,27.59
2023-03-26T07:58:54.129Z,28.19
2023-03-26T08:04:43.684Z,27.28
2023-03-26T08:10:24.043Z,26.28
2023-03-26T08:15:45.444Z,26.17
2023-03-26T08:20:54.983Z,25.65
2023-03-26T08:26:10.782Z,24.02
2023-03-26T08:31:15.656Z,24.03
2023-03-26T08:36:18.130Z,22.43
2023-03-26T08:41:53.460Z,23.00
2023-03-26T08:47:04.616Z,22.18
2023-03-26T08:52:28.837Z,22.69
2023-03-26T08:57:56.923Z,23.02
2023-03-26T09:03:17.750Z,23.29
2023-03-26T09:08:54.266Z,23.74
2023-03-26T09:14:15.276Z,24.58
2023-03-26T09:19:32.626Z,26.10
2023-03-26T09:24:52.271Z,26.38
2023-03-26T09:30:01.074Z,25.75
2023-03-26T09:35:05.838Z,25.68
2023-03-26T09:40:29.671Z,25.58
2023-03-26T09:45:38.233Z,24.97
2023-03-26T09:51:09.989Z,24.37
2023-03-26T09:56:40.370Z,24.40
2023-03-26T10:01:55.105Z,25.33
2023-03-26T10:07:06.385Z,25.39
2023-03-26T10:12:36.928Z,25.89
2023-03-26T10:17:48.719Z,26.13
2023-03-26T10:23:03.364Z,26.32
2023-03-26T10:28:17.748Z,26.22
2023-03-26T10:33:48.060Z,27.54
2023-03-26T10:39:37.368Z,27.66
2023-03-26T10:44:53.913Z,27.63
2023-03-26T10:50:46.968Z,27.81
2023-03-26T10:56:00.024Z,27.89
2023-03-26T11:01:25.193Z,27.62
2023-03-26T11:06:32.363Z,28.01
2023-03-26T11:11:46.374Z,27.93
2023-03-26T11:16:58.683Z,27.56
2023-03-26T11:22:11.495Z,27.12
2023-03-26T11:27:26.516Z,26.79
2023-03-26T11:32:43.174Z,26.92
2023-03-26T11:37:53.889Z,26.53
2023-03-26T11:43:01.867Z,26.46
2023-03-26T11:48:19.472Z,26.16
2023-03-26T11:53:29.364Z,26.18
2023-03-26T11:58:41.606Z,25.49
2023-03-26T12:03:55.730Z,25.47
2023-03-26T12:08:58.119Z,25.62
2023-03-26T12:14:05.825Z,25.65
2023-03-26T12:19:20.382Z,25.80
2023-03-26T12:24:33.805Z,25.80
2023-03-26T12:29:36.385Z,26.36
2023-03-26T12:34:39.919Z,26.81
2023-03-26T12:40:06.601Z,27.41
2023-03-26T12:45:07.115Z,27.58
2023-03-26T12:50:14.891Z,27.65
2023-03-26T12:55:56.874Z,27.94
2023-03-26T13:01:21.464Z,28.44
2023-03-26T13:06:59.174Z,29.21
2023-03-26T13:12:21.468Z,29.64
2023-03-26T13:17:51.548Z,30.25
2023-03-26T13:22:59.906Z,30.60
2023-03-26T13:28:12.355Z,30.81
2023-03-26T13:33:43.731Z,31.17
2023-03-26T13:39:33.618Z,31.55
2023-03-26T13:45:14.959Z,31.81
2023-03-26T13:50:29.362Z,31.63
2023-03-26T13:55:40.435Z,31.72
2023-03-26T14:01:04.284Z,31.79
2023-03-26T14:06:24.773Z,32.11
2023-03-26T14:11:48.132Z,32.21
2023-03-26T14:17:03.881Z,32.90
2023-03-26T14:22:41.501Z,33.61
2023-03-26T14:27:54.592Z,34.00
2023-03-26T14:33:34.286Z,34.40
2023-03-26T14:39:00.103Z,34.67
2023-03-26T14:44:47.673Z,35.44
2023-03-26T14:50:31.751Z,36.53
2023-03-26T14:56:13.186Z,37.39
2023-03-26T15:01:26.925Z,37.96
2023-03-26T15:06:47.407Z,38.77
2023-03-26T15:12:12.904Z,39.51
2023-03-26T15:17:40.931Z,40.21
2023-03-26T15:23:08.069Z,40.92
2023-03-26T15:28:51.633Z,41.70
2023-03-26T15:34:20.229Z,42.13
2023-03-26T15:40:08.243Z,42.74
2023-03-26T15:45:42.405Z,43.50
2023-03-26T15:50:56.533Z,44.53
2023-03-26T15:56:11.844Z,45.63
2023-03-26T16:01:32.690Z,46.19
2023-03-26T16:06:50.493Z,47.02
2023-03-26T16:11:59.149Z,46.94
2023-03-26T16:17:05.658Z,48.21
2023-03-26T16:22:15.652Z,48.84
2023-03-26T16:27:32.430Z,48.08
2023-03-26T16:32:36.622Z,48.37
2023-03-26T16:37:46.321Z,48.92
2023-03-26T16:43:22.863Z,48.42
2023-03-26T16:49:21.785Z,47.54
2023-03-26T16:54:27.301Z,47.27
2023-03-26T17:00:05.382Z,45.68
2023-03-26T17:05:24.976Z,44.61
2023-03-26T17:11:02.595Z,44.50
2023-03-26T17:16:27.754Z,45.18
2023-03-26T17:21:49.430Z,45.96
2023-03-26T17:27:28.427Z,46.84
2023-03-26T17:32:56.223Z,48.06
2023-03-26T17:37:58.989Z,49.46
2023-03-26T17:43:04.745Z,50.28
2023-03-26T17:48:16.984Z,51.49
2023-03-26T17:53:40.618Z,52.03
2023-03-26T17:58:55.003Z,52.76
2023-03-26T18:04:00.942Z,52.56
2023-03-26T18:09:11.011Z,52.71
2023-03-26T18:14:19.343Z,53.27
2023-03-26T18:19:23.329Z,53.43
2023-03-26T18:24:31.609Z,53.75
2023-03-26T18:29:36.075Z,53.94
2023-03-26T18:34:45.829Z,53.74
2023-03-26T18:40:07.778Z,54.19
2023-03-26T18:45:23.836Z,55.46
2023-03-26T18:50:36.109Z,57.70
2023-03-26T18:55:39.869Z,58.25
2023-03-26T19:00:43.096Z,59.17
2023-03-26T19:05:45.807Z,59.84
2023-03-26T19:10:51.029Z,60.03
2023-03-26T19:15:57.009Z,59.99
2023-03-26T19:21:03.663Z,60.72
2023-03-26T19:26:09.615Z,60.93
2023-03-26T19:31:26.251Z,61.22
2023-03-26T19:36:32.317Z,61.78
2023-03-26T19:41:38.910Z,61.76
2023-03-26T19:46:53.993Z,62.19
2023-03-26T19:52:33.358Z,62.37
2023-03-26T19:57:36.849Z,62.91
2023-03-26T20:02:40.039Z,63.25
2023-03-26T20:07:45.035Z,63.59
2023-03-26T20:12:47.500Z,64.11
2023-03-26T20:17:52.721Z,64.42
2023-03-26T20:22:55.597Z,65.34
2023-03-26T20:27:58.905Z,66.06
2023-03-26T20:33:12.707Z,66.50
2023-03-26T20:38:17.069Z,66.89
2023-03-26T20:43:22.016Z,67.45
2023-03-26T20:48:26.831Z,68.04
2023-03-26T20:53:30.724Z,68.24
2023-03-26T20:58:33.440Z,68.59
2023-03-26T21:03:35.868Z,68.83
2023-03-26T21:08:38.736Z,68.63
2023-03-26T21:14:00.201Z,68.75
2023-03-26T21:19:03.328Z,68.88
2023-03-26T21:24:47.071Z,68.73
2023-03-26T21:29:49.754Z,68.67
2023-03-26T21:40:00.312Z,69.01
2023-03-26T21:45:06.069Z,68.82
2023-03-26T21:50:10.403Z,69.11
2023-03-26T21:55:18.670Z,69.06
2023-03-26T22:00:33.515Z,68.66
2023-03-26T22:06:03.815Z,68.57
2023-03-26T22:11:07.989Z,68.66
2023-03-26T22:16:10.967Z,68.29
2023-03-26T22:21:14.377Z,67.99
2023-03-26T22:26:17.076Z,68.16
2023-03-26T22:31:19.699Z,68.12
2023-03-26T22:36:23.828Z,68.25
2023-03-26T22:41:26.800Z,68.69
2023-03-26T22:46:31.241Z,68.86
2023-03-26T22:51:33.473Z,68.75
2023-03-26T22:56:36.613Z,68.37
2023-03-26T23:01:39.389Z,68.06
2023-03-26T23:06:41.889Z,68.55
2023-03-26T23:11:44.304Z,68.27
2023-03-26T23:16:46.701Z,67.78
2023-03-26T23:21:49.138Z,68.56
2023-03-26T23:26:51.566Z,68.19
2023-03-26T23:31:54.811Z,68.08
2023-03-26T23:36:58.261Z,68.40
2023-03-26T23:42:00.687Z,68.50
2023-03-26T23:47:03.112Z,69.07
2023-03-26T23:52:05.842Z,70.04
2023-03-26T23:57:09.191Z,69.69
